Time;durP1;ratioP1;P1;durP2;ratioP2;P2;SDS_P1;SDS_P2;PMS_P1;PMS_P2;Temp;Humidity;BMP_temperature;BMP_pressure;BME280_temperature;BME280_humidity;BME280_pressure;Samples;Min_cycle;Max_cycle;Signal;HPM_P1;HPM_P2
2022/04/07 00:01:48;;;;;;;;;;;23.10;43.80;;;;;;1583695;75;1943;-61
2022/04/07 00:03:50;;;;;;;;;;;23.10;43.80;;;;;;1577539;75;806;-61
2022/04/07 00:05:52;;;;;;;;;;;23.10;43.80;;;;;;1576332;75;936;-60
2022/04/07 00:07:54;;;;;;;;;;;23.10;43.80;;;;;;1576383;75;697;-61
2022/04/07 00:09:56;;;;;;;;;;;23.10;43.80;;;;;;1576573;75;779;-61
2022/04/07 00:11:58;;;;;;;;;;;23.10;43.80;;;;;;1576322;74;1140;-60
2022/04/07 00:14:00;;;;;;;;;;;23.10;43.90;;;;;;1579089;75;702;-61
2022/04/07 00:16:01;;;;;;;;;;;23.10;43.80;;;;;;1583643;75;654;-61
2022/04/07 00:18:04;;;;;;;;;;;23.00;43.70;;;;;;1583749;75;716;-63
2022/04/07 00:20:06;;;;;;;;;;;23.10;43.90;;;;;;1583832;75;719;-64
2022/04/07 00:22:08;;;;;;;;;;;23.10;43.80;;;;;;1583478;75;1951;-60
2022/04/07 00:24:10;;;;;;;;;;;23.10;43.80;;;;;;1583754;75;645;-60
2022/04/07 00:26:12;;;;;;;;;;;23.10;43.80;;;;;;1571255;74;776;-61
2022/04/07 00:28:14;;;;;;;;;;;23.10;43.80;;;;;;1599195;73;652;-63
2022/04/07 00:30:20;;;;;;;;;;;23.10;43.80;;;;;;1599224;74;1147;-63
2022/04/07 00:32:20;;;;;;;;;;;23.10;43.80;;;;;;1598768;74;1773;-61
2022/04/07 00:34:22;;;;;;;;;;;23.10;43.90;;;;;;1583616;74;689;-61
2022/04/07 00:36:23;;;;;;;;;;;23.10;43.80;;;;;;1583514;75;774;-61
2022/04/07 00:38:25;;;;;;;;;;;23.10;43.90;;;;;;1583708;75;797;-62
2022/04/07 00:40:46;;;;;;;;;;;23.10;43.90;;;;;;1583703;75;1126;-62
2022/04/07 00:42:49;;;;;;;;;;;23.10;43.90;;;;;;1623170;73;1935;-67
2022/04/07 00:44:51;;;;;;;;;;;23.00;43.80;;;;;;1623036;73;712;-69
2022/04/07 00:46:53;;;;;;;;;;;23.10;43.90;;;;;;1622823;73;672;-71
2022/04/07 00:48:55;;;;;;;;;;;23.00;43.70;;;;;;1623030;73;704;-69
2022/04/07 00:50:57;;;;;;;;;;;23.10;43.90;;;;;;1618871;73;1241;-67
2022/04/07 00:52:59;;;;;;;;;;;23.00;43.80;;;;;;1601448;74;725;-68
2022/04/07 00:55:01;;;;;;;;;;;23.10;43.90;;;;;;1600890;74;774;-69
2022/04/07 00:57:03;;;;;;;;;;;23.00;43.90;;;;;;1601504;74;610;-69
2022/04/07 00:59:05;;;;;;;;;;;23.10;44.00;;;;;;1587643;74;753;-69
2022/04/07 01:01:08;;;;;;;;;;;23.10;44.00;;;;;;1584094;74;1192;-70
2022/04/07 01:03:11;;;;;;;;;;;23.00;43.90;;;;;;1579331;74;1902;-70
2022/04/07 01:05:13;;;;;;;;;;;23.10;44.00;;;;;;1576654;74;607;-70
2022/04/07 01:07:14;;;;;;;;;;;23.00;43.90;;;;;;1573946;74;643;-71
2022/04/07 01:09:17;;;;;;;;;;;23.00;43.90;;;;;;1587871;74;726;-70
2022/04/07 01:11:18;;;;;;;;;;;23.00;43.90;;;;;;1601503;74;1147;-70
2022/04/07 01:13:20;;;;;;;;;;;23.00;43.90;;;;;;1601591;74;741;-70
2022/04/07 01:15:22;;;;;;;;;;;23.10;44.10;;;;;;1600641;74;769;-71
2022/04/07 01:17:24;;;;;;;;;;;23.00;43.90;;;;;;1573082;74;759;-68
2022/04/07 01:19:26;;;;;;;;;;;23.00;44.00;;;;;;1601644;74;712;-68
2022/04/07 01:21:30;;;;;;;;;;;23.00;44.00;;;;;;1600800;74;1127;-68
2022/04/07 01:23:33;;;;;;;;;;;23.00;44.00;;;;;;1585721;74;1902;-69
2022/04/07 01:25:35;;;;;;;;;;;23.00;44.10;;;;;;1573896;74;760;-67
2022/04/07 01:27:37;;;;;;;;;;;23.00;44.10;;;;;;1595890;74;727;-67
2022/04/07 01:29:39;;;;;;;;;;;23.00;44.10;;;;;;1600745;74;674;-67
2022/04/07 01:31:40;;;;;;;;;;;23.00;44.10;;;;;;1596648;74;1196;-66
2022/04/07 01:33:43;;;;;;;;;;;23.00;44.10;;;;;;1593145;74;668;-68
2022/04/07 01:35:45;;;;;;;;;;;22.90;44.10;;;;;;1599179;74;804;-68
2022/04/07 01:37:47;;;;;;;;;;;23.00;44.10;;;;;;1581654;74;739;-68
2022/04/07 01:39:49;;;;;;;;;;;23.00;44.10;;;;;;1580956;75;624;-69
2022/04/07 01:41:51;;;;;;;;;;;23.00;44.10;;;;;;1609372;72;1155;-68
2022/04/07 01:43:53;;;;;;;;;;;23.00;44.10;;;;;;1597728;72;1932;-68
2022/04/07 01:45:55;;;;;;;;;;;23.00;44.10;;;;;;1576401;75;722;-66
2022/04/07 01:47:57;;;;;;;;;;;22.90;44.10;;;;;;1577273;74;710;-68
2022/04/07 01:50:00;;;;;;;;;;;23.00;44.10;;;;;;1599982;74;698;-67
2022/04/07 01:52:02;;;;;;;;;;;23.00;44.00;;;;;;1581521;74;1139;-68
2022/04/07 01:54:04;;;;;;;;;;;23.00;44.00;;;;;;1610628;72;701;-67
2022/04/07 01:56:06;;;;;;;;;;;23.00;44.00;;;;;;1580267;74;733;-68
2022/04/07 01:58:08;;;;;;;;;;;23.00;43.90;;;;;;1608968;74;727;-70
2022/04/07 02:00:10;;;;;;;;;;;23.00;43.90;;;;;;1604864;72;691;-67
2022/04/07 02:02:12;;;;;;;;;;;23.00;43.90;;;;;;1610133;72;1144;-71
2022/04/07 02:04:14;;;;;;;;;;;23.00;43.90;;;;;;1604019;72;1933;-70
2022/04/07 02:06:16;;;;;;;;;;;23.00;44.00;;;;;;1581769;74;729;-70
2022/04/07 02:08:18;;;;;;;;;;;23.00;44.00;;;;;;1608428;72;724;-70
2022/04/07 02:10:23;;;;;;;;;;;23.00;44.10;;;;;;1611363;72;748;-68
2022/04/07 02:12:24;;;;;;;;;;;23.00;44.00;;;;;;1610487;73;1595;-68
2022/04/07 02:14:26;;;;;;;;;;;23.00;44.00;;;;;;1610787;72;800;-69
2022/04/07 02:16:30;;;;;;;;;;;23.00;44.00;;;;;;1609424;73;814;-69
2022/04/07 02:18:31;;;;;;;;;;;23.00;44.10;;;;;;1591596;74;824;-69
2022/04/07 02:20:33;;;;;;;;;;;23.00;44.00;;;;;;1581299;74;663;-69
2022/04/07 02:22:35;;;;;;;;;;;23.00;44.10;;;;;;1572589;74;1111;-71
2022/04/07 02:24:38;;;;;;;;;;;23.00;44.10;;;;;;1606039;72;1926;-69
2022/04/07 02:26:40;;;;;;;;;;;23.00;44.10;;;;;;1609281;72;725;-69
2022/04/07 02:28:41;;;;;;;;;;;23.00;44.10;;;;;;1610996;72;734;-69
2022/04/07 02:30:43;;;;;;;;;;;23.00;44.10;;;;;;1611041;73;1186;-69
2022/04/07 02:32:45;;;;;;;;;;;23.00;44.10;;;;;;1609604;72;753;-68
2022/04/07 02:34:48;;;;;;;;;;;23.00;44.00;;;;;;1606952;74;778;-68
2022/04/07 02:36:50;;;;;;;;;;;23.00;44.00;;;;;;1608053;72;651;-67
2022/04/07 02:38:51;;;;;;;;;;;23.10;44.10;;;;;;1603940;72;737;-67
2022/04/07 02:40:53;;;;;;;;;;;23.10;44.00;;;;;;1577105;75;1144;-67
2022/04/07 02:42:55;;;;;;;;;;;23.00;43.90;;;;;;1580754;74;1935;-67
2022/04/07 02:44:57;;;;;;;;;;;23.10;43.90;;;;;;1572025;75;937;-66
2022/04/07 02:46:59;;;;;;;;;;;23.10;43.90;;;;;;1585637;74;757;-67
2022/04/07 02:49:01;;;;;;;;;;;23.10;43.80;;;;;;1574459;74;712;-69
2022/04/07 02:51:03;;;;;;;;;;;23.10;43.80;;;;;;1600019;73;1165;-69
2022/04/07 02:53:05;;;;;;;;;;;23.30;43.80;;;;;;1575835;75;914;-67
2022/04/07 02:55:07;;;;;;;;;;;23.20;43.60;;;;;;1604135;74;786;-67
2022/04/07 02:57:09;;;;;;;;;;;23.30;43.60;;;;;;1603241;74;807;-67
2022/04/07 02:59:11;;;;;;;;;;;23.30;43.50;;;;;;1604893;74;787;-67
2022/04/07 03:01:14;;;;;;;;;;;23.40;43.30;;;;;;1604731;73;1147;-70
2022/04/07 03:03:16;;;;;;;;;;;23.40;43.30;;;;;;1603516;74;1917;-70
2022/04/07 03:05:18;;;;;;;;;;;23.50;43.30;;;;;;1597580;74;789;-71
2022/04/07 03:07:22;;;;;;;;;;;23.50;43.20;;;;;;1604362;74;790;-67
2022/04/07 03:09:24;;;;;;;;;;;23.50;43.30;;;;;;1605893;74;813;-68
2022/04/07 03:11:26;;;;;;;;;;;23.40;43.20;;;;;;1608273;74;1132;-67
2022/04/07 03:13:28;;;;;;;;;;;23.40;43.20;;;;;;1610005;73;779;-68
2022/04/07 03:15:30;;;;;;;;;;;23.40;43.20;;;;;;1608623;74;787;-67
2022/04/07 03:17:33;;;;;;;;;;;23.50;43.20;;;;;;1602404;74;802;-66
2022/04/07 03:19:35;;;;;;;;;;;23.50;43.10;;;;;;1608481;74;607;-68
2022/04/07 03:21:37;;;;;;;;;;;23.50;43.40;;;;;;1608390;73;1165;-70
2022/04/07 03:23:39;;;;;;;;;;;23.40;43.40;;;;;;1605654;73;1940;-69
2022/04/07 03:25:41;;;;;;;;;;;23.30;43.50;;;;;;1604461;73;734;-70
2022/04/07 03:27:43;;;;;;;;;;;23.30;43.60;;;;;;1605867;73;780;-68
2022/04/07 03:29:45;;;;;;;;;;;23.30;43.80;;;;;;1608772;74;723;-68
2022/04/07 03:31:46;;;;;;;;;;;23.30;43.70;;;;;;1605558;73;1185;-68
2022/04/07 03:33:48;;;;;;;;;;;23.40;43.50;;;;;;1607383;74;745;-68
2022/04/07 03:35:50;;;;;;;;;;;23.50;43.50;;;;;;1608214;74;750;-69
2022/04/07 03:37:52;;;;;;;;;;;23.40;43.20;;;;;;1605255;74;662;-68
2022/04/07 03:39:54;;;;;;;;;;;23.40;43.70;;;;;;1608365;74;778;-70
2022/04/07 03:41:56;;;;;;;;;;;23.30;43.90;;;;;;1605187;74;1132;-70
2022/04/07 03:43:58;;;;;;;;;;;23.30;44.00;;;;;;1607674;74;1932;-70
2022/04/07 03:45:59;;;;;;;;;;;23.20;43.90;;;;;;1607189;73;629;-66
2022/04/07 03:48:01;;;;;;;;;;;23.20;44.20;;;;;;1608354;73;700;-68
2022/04/07 03:50:03;;;;;;;;;;;23.20;44.30;;;;;;1608083;73;698;-68
2022/04/07 03:52:05;;;;;;;;;;;23.20;44.10;;;;;;1608554;73;1169;-68
2022/04/07 03:54:07;;;;;;;;;;;23.20;44.20;;;;;;1608219;73;703;-68
2022/04/07 03:56:09;;;;;;;;;;;23.30;44.10;;;;;;1606149;73;748;-69
2022/04/07 03:58:11;;;;;;;;;;;23.30;44.10;;;;;;1589052;74;679;-69
2022/04/07 04:00:15;;;;;;;;;;;23.40;43.80;;;;;;1594324;73;887;-67
2022/04/07 04:02:17;;;;;;;;;;;23.50;43.60;;;;;;1601875;74;1127;-68
2022/04/07 04:04:22;;;;;;;;;;;23.60;43.30;;;;;;1590706;73;1908;-68
2022/04/07 04:06:23;;;;;;;;;;;23.50;43.30;;;;;;1591407;73;1145;-65
2022/04/07 04:08:25;;;;;;;;;;;23.50;43.30;;;;;;1596163;73;715;-66
2022/04/07 04:10:27;;;;;;;;;;;23.50;43.40;;;;;;1604903;73;719;-66
2022/04/07 04:12:28;;;;;;;;;;;23.40;43.40;;;;;;1584460;73;1127;-67
2022/04/07 04:14:30;;;;;;;;;;;23.40;43.40;;;;;;1602921;73;760;-65
2022/04/07 04:16:32;;;;;;;;;;;23.30;43.40;;;;;;1598933;74;746;-70
2022/04/07 04:18:34;;;;;;;;;;;23.30;43.50;;;;;;1606761;73;603;-66
2022/04/07 04:20:38;;;;;;;;;;;23.30;43.40;;;;;;1605850;73;1264;-66
2022/04/07 04:22:40;;;;;;;;;;;23.30;43.50;;;;;;1600378;73;1929;-65
2022/04/07 04:24:42;;;;;;;;;;;23.30;43.50;;;;;;1606260;73;1928;-67
2022/04/07 04:26:44;;;;;;;;;;;23.30;43.60;;;;;;1604584;73;771;-64
2022/04/07 04:28:45;;;;;;;;;;;23.20;43.60;;;;;;1607166;73;772;-66
2022/04/07 04:30:47;;;;;;;;;;;23.20;43.60;;;;;;1595080;73;1176;-66
2022/04/07 04:32:49;;;;;;;;;;;23.20;43.60;;;;;;1618289;73;672;-69
2022/04/07 04:34:51;;;;;;;;;;;23.20;43.70;;;;;;1594247;73;789;-67
2022/04/07 04:36:53;;;;;;;;;;;23.30;43.70;;;;;;1600826;73;709;-66
2022/04/07 04:38:55;;;;;;;;;;;23.30;43.70;;;;;;1576251;73;835;-65
2022/04/07 04:40:57;;;;;;;;;;;23.40;43.80;;;;;;1567553;74;1145;-69
2022/04/07 04:43:00;;;;;;;;;;;23.30;44.40;;;;;;1603831;74;793;-68
2022/04/07 04:45:02;;;;;;;;;;;23.30;44.80;;;;;;1604226;73;1912;-65
2022/04/07 04:47:04;;;;;;;;;;;23.20;44.70;;;;;;1603941;73;761;-66
2022/04/07 04:49:06;;;;;;;;;;;23.20;44.40;;;;;;1587264;73;696;-66
2022/04/07 04:51:08;;;;;;;;;;;23.50;44.10;;;;;;1605786;73;1179;-65
2022/04/07 04:53:09;;;;;;;;;;;23.60;43.70;;;;;;1604305;74;675;-66
2022/04/07 04:55:11;;;;;;;;;;;23.60;43.60;;;;;;1603733;74;704;-65
2022/04/07 04:57:13;;;;;;;;;;;23.60;43.50;;;;;;1604241;74;577;-68
2022/04/07 04:59:16;;;;;;;;;;;23.50;43.40;;;;;;1604256;74;1064;-67
2022/04/07 05:01:18;;;;;;;;;;;23.50;43.30;;;;;;1604276;74;1185;-67
2022/04/07 05:03:19;;;;;;;;;;;23.60;43.30;;;;;;1603098;73;678;-67
2022/04/07 05:05:21;;;;;;;;;;;23.50;43.20;;;;;;1602161;74;1936;-69
2022/04/07 05:07:23;;;;;;;;;;;23.50;43.20;;;;;;1590842;74;702;-68
2022/04/07 05:09:25;;;;;;;;;;;23.50;43.20;;;;;;1576698;75;652;-68
2022/04/07 05:11:27;;;;;;;;;;;23.50;43.50;;;;;;1576517;75;1138;-69
2022/04/07 05:13:29;;;;;;;;;;;23.40;43.40;;;;;;1579137;74;705;-65
2022/04/07 05:15:31;;;;;;;;;;;23.60;43.30;;;;;;1604048;74;770;-66
2022/04/07 05:17:32;;;;;;;;;;;23.50;43.20;;;;;;1604334;74;561;-66
2022/04/07 05:19:38;;;;;;;;;;;23.40;43.10;;;;;;1604358;73;605;-67
2022/04/07 05:21:38;;;;;;;;;;;23.50;43.10;;;;;;1589579;73;1624;-68
2022/04/07 05:23:40;;;;;;;;;;;23.40;43.00;;;;;;1616706;73;785;-64
2022/04/07 05:25:42;;;;;;;;;;;23.50;43.10;;;;;;1611620;73;1926;-66
2022/04/07 05:27:45;;;;;;;;;;;23.50;43.00;;;;;;1585772;73;721;-69
2022/04/07 05:29:47;;;;;;;;;;;23.60;42.70;;;;;;1588963;73;774;-65
2022/04/07 05:31:48;;;;;;;;;;;23.60;42.60;;;;;;1610236;73;1186;-67
2022/04/07 05:33:50;;;;;;;;;;;23.70;42.60;;;;;;1607705;73;1042;-65
2022/04/07 05:35:52;;;;;;;;;;;23.70;42.40;;;;;;1600368;73;778;-65
2022/04/07 05:37:59;;;;;;;;;;;23.70;42.20;;;;;;1606700;73;677;-66
2022/04/07 05:40:01;;;;;;;;;;;23.70;42.20;;;;;;1593553;73;1684;-66
2022/04/07 05:42:03;;;;;;;;;;;23.70;42.10;;;;;;1585854;74;1105;-68
2022/04/07 05:44:05;;;;;;;;;;;23.60;42.00;;;;;;1604080;74;1920;-67
2022/04/07 05:46:07;;;;;;;;;;;23.60;42.10;;;;;;1604052;74;783;-68
2022/04/07 05:48:10;;;;;;;;;;;23.60;42.30;;;;;;1604292;74;773;-66
2022/04/07 05:50:12;;;;;;;;;;;23.50;42.20;;;;;;1603405;74;657;-66
2022/04/07 05:52:13;;;;;;;;;;;23.40;42.30;;;;;;1603782;73;1092;-70
2022/04/07 05:54:17;;;;;;;;;;;23.50;42.30;;;;;;1604435;73;734;-69
2022/04/07 05:56:19;;;;;;;;;;;23.50;42.30;;;;;;1602519;74;811;-68
2022/04/07 05:58:21;;;;;;;;;;;23.40;42.20;;;;;;1605227;73;741;-68
2022/04/07 06:00:23;;;;;;;;;;;23.50;42.30;;;;;;1603874;73;806;-69
2022/04/07 06:02:25;;;;;;;;;;;23.60;42.20;;;;;;1604045;73;1159;-68
2022/04/07 06:04:26;;;;;;;;;;;23.60;42.10;;;;;;1603254;73;1928;-66
2022/04/07 06:06:28;;;;;;;;;;;23.60;41.90;;;;;;1605138;73;725;-67
2022/04/07 06:08:30;;;;;;;;;;;23.70;42.00;;;;;;1604808;73;650;-67
2022/04/07 06:10:32;;;;;;;;;;;23.70;41.80;;;;;;1596759;73;771;-67
2022/04/07 06:12:34;;;;;;;;;;;23.70;41.70;;;;;;1606540;73;1124;-66
2022/04/07 06:14:36;;;;;;;;;;;23.70;41.80;;;;;;1604710;73;696;-66
2022/04/07 06:16:38;;;;;;;;;;;23.60;41.60;;;;;;1632629;73;715;-66
2022/04/07 06:18:39;;;;;;;;;;;23.60;41.80;;;;;;1632853;73;648;-64
2022/04/07 06:20:41;;;;;;;;;;;23.60;41.80;;;;;;1616043;73;1139;-64
2022/04/07 06:22:44;;;;;;;;;;;23.60;41.90;;;;;;1604209;74;657;-66
2022/04/07 06:24:45;;;;;;;;;;;23.60;42.00;;;;;;1597865;73;1942;-65
2022/04/07 06:26:49;;;;;;;;;;;23.50;41.80;;;;;;1597861;73;709;-64
2022/04/07 06:28:51;;;;;;;;;;;23.50;41.90;;;;;;1604289;74;698;-67
2022/04/07 06:30:54;;;;;;;;;;;23.50;42.00;;;;;;1604357;74;1151;-64
2022/04/07 06:32:56;;;;;;;;;;;23.40;41.90;;;;;;1604111;74;612;-65
2022/04/07 06:34:58;;;;;;;;;;;23.40;41.90;;;;;;1603198;74;692;-68
2022/04/07 06:37:00;;;;;;;;;;;23.40;41.80;;;;;;1604209;74;800;-65
2022/04/07 06:39:03;;;;;;;;;;;23.40;41.80;;;;;;1604240;74;729;-66
2022/04/07 06:41:05;;;;;;;;;;;23.50;41.80;;;;;;1594971;72;231138;-61
2022/04/07 06:43:07;;;;;;;;;;;23.40;41.70;;;;;;1527484;76;691;-62
2022/04/07 06:45:09;;;;;;;;;;;23.50;41.80;;;;;;1528387;77;1956;-62
2022/04/07 06:47:11;;;;;;;;;;;23.50;41.70;;;;;;1525905;77;768;-62
2022/04/07 06:49:13;;;;;;;;;;;23.60;41.60;;;;;;1528214;77;776;-61
2022/04/07 06:51:14;;;;;;;;;;;23.60;41.50;;;;;;1523533;76;1213;-64
2022/04/07 06:53:17;;;;;;;;;;;23.60;41.50;;;;;;1499433;78;762;-63
2022/04/07 06:55:18;;;;;;;;;;;23.60;41.30;;;;;;1498819;78;754;-63
2022/04/07 06:57:20;;;;;;;;;;;23.60;41.30;;;;;;1507416;78;755;-66
2022/04/07 06:59:22;;;;;;;;;;;23.60;41.40;;;;;;1498017;78;755;-62
2022/04/07 07:01:24;;;;;;;;;;;23.60;41.50;;;;;;1497112;78;1125;-61
2022/04/07 07:03:28;;;;;;;;;;;23.70;41.40;;;;;;1497493;78;679;-59
2022/04/07 07:05:30;;;;;;;;;;;23.60;41.30;;;;;;1497184;78;1918;-61
2022/04/07 07:07:32;;;;;;;;;;;23.60;41.30;;;;;;1504542;78;825;-62
2022/04/07 07:09:34;;;;;;;;;;;23.50;41.50;;;;;;1509319;78;772;-62
2022/04/07 07:11:36;;;;;;;;;;;23.60;41.40;;;;;;1502536;78;1130;-61
2022/04/07 07:13:38;;;;;;;;;;;23.70;41.70;;;;;;1501608;78;676;-61
2022/04/07 07:15:40;;;;;;;;;;;23.70;41.80;;;;;;1488681;78;732;-60
2022/04/07 07:17:42;;;;;;;;;;;23.70;41.70;;;;;;1505463;78;772;-60
2022/04/07 07:19:44;;;;;;;;;;;23.80;41.50;;;;;;1499587;78;641;-62
2022/04/07 07:21:46;;;;;;;;;;;23.70;41.50;;;;;;1505862;78;1165;-63
2022/04/07 07:23:48;;;;;;;;;;;23.70;41.20;;;;;;1496889;78;762;-62
2022/04/07 07:25:50;;;;;;;;;;;23.70;41.20;;;;;;1499141;78;1944;-62
2022/04/07 07:27:52;;;;;;;;;;;23.60;41.10;;;;;;1495769;78;943;-61
2022/04/07 07:29:53;;;;;;;;;;;23.70;41.30;;;;;;1499861;78;728;-61
2022/04/07 07:31:55;;;;;;;;;;;23.60;41.10;;;;;;1497294;78;1170;-61
2022/04/07 07:33:57;;;;;;;;;;;23.70;41.20;;;;;;1493258;78;741;-60
2022/04/07 07:35:59;;;;;;;;;;;23.60;41.10;;;;;;1495333;78;731;-60
2022/04/07 07:38:02;;;;;;;;;;;23.70;41.20;;;;;;1497631;78;741;-61
2022/04/07 07:40:04;;;;;;;;;;;23.70;41.10;;;;;;1497294;78;784;-58
2022/04/07 07:42:06;;;;;;;;;;;23.70;41.10;;;;;;1491327;78;1230;-60
2022/04/07 07:44:08;;;;;;;;;;;23.70;41.00;;;;;;1498353;78;696;-60
2022/04/07 07:46:10;;;;;;;;;;;23.70;41.10;;;;;;1497269;78;1946;-59
2022/04/07 07:48:12;;;;;;;;;;;23.70;41.10;;;;;;1496116;78;565;-60
2022/04/07 07:50:14;;;;;;;;;;;23.80;41.00;;;;;;1499535;78;788;-63
2022/04/07 07:52:16;;;;;;;;;;;23.80;40.90;;;;;;1496885;78;1153;-63
2022/04/07 07:54:18;;;;;;;;;;;23.70;40.90;;;;;;1500756;78;831;-61
2022/04/07 07:56:19;;;;;;;;;;;23.70;40.90;;;;;;1503227;78;789;-61
2022/04/07 07:58:26;;;;;;;;;;;23.80;40.90;;;;;;1501146;78;733;-61
2022/04/07 08:00:25;;;;;;;;;;;23.90;40.90;;;;;;1498342;78;1578;-58
2022/04/07 08:02:27;;;;;;;;;;;23.80;40.70;;;;;;1493367;78;1117;-61
2022/04/07 08:04:29;;;;;;;;;;;23.80;40.70;;;;;;1496617;78;843;-61
2022/04/07 08:06:32;;;;;;;;;;;23.80;40.70;;;;;;1498018;78;1938;-61
2022/04/07 08:08:34;;;;;;;;;;;23.80;40.70;;;;;;1499539;78;799;-61
2022/04/07 08:10:36;;;;;;;;;;;23.80;41.00;;;;;;1497540;78;739;-62
2022/04/07 08:12:38;;;;;;;;;;;23.90;41.00;;;;;;1508117;78;1178;-61
2022/04/07 08:14:40;;;;;;;;;;;23.90;41.00;;;;;;1494283;78;754;-59
2022/04/07 08:16:42;;;;;;;;;;;24.10;40.80;;;;;;1501341;78;667;-61
2022/04/07 08:18:43;;;;;;;;;;;24.10;40.30;;;;;;1501423;78;643;-62
2022/04/07 08:20:45;;;;;;;;;;;24.10;40.20;;;;;;1510952;78;784;-60
2022/04/07 08:22:47;;;;;;;;;;;24.00;40.20;;;;;;1497189;78;1448;-59
2022/04/07 08:24:49;;;;;;;;;;;24.00;40.20;;;;;;1497728;78;733;-61
2022/04/07 08:26:51;;;;;;;;;;;24.10;40.20;;;;;;1496990;78;1921;-61
2022/04/07 08:28:53;;;;;;;;;;;24.00;40.30;;;;;;1505985;78;749;-59
2022/04/07 08:30:55;;;;;;;;;;;24.10;40.40;;;;;;1498819;78;733;-62
2022/04/07 08:32:57;;;;;;;;;;;24.00;40.00;;;;;;1498187;78;1174;-61
2022/04/07 08:34:58;;;;;;;;;;;24.10;40.30;;;;;;1501302;78;675;-62
2022/04/07 08:37:00;;;;;;;;;;;24.10;40.30;;;;;;1498170;78;738;-60
2022/04/07 08:39:02;;;;;;;;;;;24.10;40.30;;;;;;1501862;78;776;-61
2022/04/07 08:41:06;;;;;;;;;;;24.20;40.30;;;;;;1500749;78;1083;-61
2022/04/07 08:43:09;;;;;;;;;;;24.20;40.20;;;;;;1503654;78;766;-60
2022/04/07 08:45:11;;;;;;;;;;;24.20;40.20;;;;;;1502053;78;1908;-62
2022/04/07 08:47:13;;;;;;;;;;;24.20;40.00;;;;;;1501508;78;779;-62
2022/04/07 08:49:15;;;;;;;;;;;24.20;40.00;;;;;;1498369;78;814;-61
2022/04/07 08:51:17;;;;;;;;;;;24.20;40.00;;;;;;1502216;78;1148;-61
2022/04/07 08:53:19;;;;;;;;;;;24.30;39.80;;;;;;1497281;78;798;-61
2022/04/07 08:55:21;;;;;;;;;;;24.30;39.80;;;;;;1501806;78;745;-60
2022/04/07 08:57:23;;;;;;;;;;;24.50;39.80;;;;;;1509506;78;827;-61
2022/04/07 08:59:25;;;;;;;;;;;24.50;39.50;;;;;;1504967;78;810;-62
2022/04/07 09:01:27;;;;;;;;;;;24.60;39.40;;;;;;1496627;78;1172;-60
2022/04/07 09:03:29;;;;;;;;;;;24.60;39.20;;;;;;1494417;78;673;-61
2022/04/07 09:05:31;;;;;;;;;;;24.70;39.10;;;;;;1498883;78;1947;-59
2022/04/07 09:07:33;;;;;;;;;;;24.80;39.00;;;;;;1495209;78;704;-62
2022/04/07 09:09:40;;;;;;;;;;;24.80;38.80;;;;;;1502122;78;810;-62
2022/04/07 09:11:39;;;;;;;;;;;24.80;38.70;;;;;;1497261;78;1636;-65
2022/04/07 09:13:42;;;;;;;;;;;24.80;38.60;;;;;;1497967;78;726;-65
2022/04/07 09:15:45;;;;;;;;;;;24.80;38.60;;;;;;1502509;78;753;-62
2022/04/07 09:17:51;;;;;;;;;;;24.80;38.60;;;;;;1495566;78;730;-62
2022/04/07 09:19:53;;;;;;;;;;;24.80;38.60;;;;;;1498416;78;720;-62
2022/04/07 09:22:05;;;;;;;;;;;24.80;38.60;;;;;;1448996;80;1154;-63
2022/04/07 09:24:07;;;;;;;;;;;24.70;38.70;;;;;;1481634;78;997;-63
2022/04/07 09:26:13;;;;;;;;;;;24.70;38.70;;;;;;1486850;79;1923;-62
2022/04/07 09:28:28;;;;;;;;;;;24.70;38.70;;;;;;1486933;79;792;-63
2022/04/07 09:30:37;;;;;;;;;;;24.70;38.70;;;;;;1486012;79;1815;-64
2022/04/07 09:32:43;;;;;;;;;;;24.70;38.80;;;;;;1483013;79;1168;-64
2022/04/07 09:34:45;;;;;;;;;;;24.70;38.90;;;;;;1485476;79;738;-62
2022/04/07 09:36:49;;;;;;;;;;;24.70;38.70;;;;;;1453180;80;895;-62
2022/04/07 09:38:51;;;;;;;;;;;24.60;38.60;;;;;;1485437;79;1837;-63
2022/04/07 09:40:53;;;;;;;;;;;24.60;38.60;;;;;;1487958;79;739;-63
2022/04/07 09:42:58;;;;;;;;;;;24.60;38.60;;;;;;1499318;77;1161;-65
2022/04/07 09:45:01;;;;;;;;;;;24.60;38.60;;;;;;1502555;78;865;-63
2022/04/07 09:47:05;;;;;;;;;;;24.60;38.50;;;;;;1519665;77;1910;-63
2022/04/07 09:49:07;;;;;;;;;;;24.60;38.60;;;;;;1501441;78;1165;-63
2022/04/07 09:51:09;;;;;;;;;;;24.50;38.60;;;;;;1501320;77;1151;-62
2022/04/07 09:53:11;;;;;;;;;;;24.50;38.60;;;;;;1503938;78;794;-62
2022/04/07 09:55:13;;;;;;;;;;;24.50;38.50;;;;;;1503961;77;748;-62
2022/04/07 09:57:14;;;;;;;;;;;24.40;38.50;;;;;;1486767;78;736;-63
2022/04/07 09:59:18;;;;;;;;;;;24.30;38.60;;;;;;1496558;78;722;-62
2022/04/07 10:01:19;;;;;;;;;;;24.30;38.60;;;;;;1500031;78;1176;-65
2022/04/07 10:03:21;;;;;;;;;;;24.30;38.60;;;;;;1506151;77;758;-62
2022/04/07 10:05:23;;;;;;;;;;;24.30;38.70;;;;;;1499182;78;800;-62
2022/04/07 10:07:25;;;;;;;;;;;24.30;38.80;;;;;;1500934;78;1927;-62
2022/04/07 10:09:27;;;;;;;;;;;24.20;38.60;;;;;;1506969;78;911;-63
2022/04/07 10:11:32;;;;;;;;;;;24.30;38.90;;;;;;1502575;78;1167;-61
2022/04/07 10:13:34;;;;;;;;;;;24.20;38.70;;;;;;1509897;77;817;-62
2022/04/07 10:15:36;;;;;;;;;;;24.20;38.70;;;;;;1501771;78;671;-63
2022/04/07 10:17:38;;;;;;;;;;;24.30;38.80;;;;;;1506591;77;724;-62
2022/04/07 10:19:47;;;;;;;;;;;24.30;38.90;;;;;;1502997;77;762;-62
2022/04/07 10:21:57;;;;;;;;;;;24.30;38.90;;;;;;1506599;77;1889;-64
2022/04/07 10:24:06;;;;;;;;;;;24.20;38.80;;;;;;1517316;78;1737;-63
2022/04/07 10:26:09;;;;;;;;;;;24.20;38.80;;;;;;1507935;77;1927;-62
2022/04/07 10:28:11;;;;;;;;;;;24.20;38.80;;;;;;1512888;78;735;-62
2022/04/07 10:30:14;;;;;;;;;;;24.20;38.80;;;;;;1516759;78;716;-63
2022/04/07 10:32:19;;;;;;;;;;;24.20;38.80;;;;;;1507776;78;1156;-65
2022/04/07 10:34:21;;;;;;;;;;;24.20;38.90;;;;;;1507371;78;1612;-67
2022/04/07 10:36:23;;;;;;;;;;;24.20;38.90;;;;;;1504329;78;1588;-63
2022/04/07 10:38:39;;;;;;;;;;;24.10;38.90;;;;;;1513256;78;836;-63
2022/04/07 10:40:51;;;;;;;;;;;24.10;38.90;;;;;;1503870;78;1851;-63
2022/04/07 10:43:06;;;;;;;;;;;24.10;38.90;;;;;;1515125;77;1147;-63
2022/04/07 10:45:10;;;;;;;;;;;24.10;38.90;;;;;;1501332;78;788;-62
2022/04/07 10:47:11;;;;;;;;;;;24.00;38.80;;;;;;1496680;78;1910;-63
2022/04/07 10:49:15;;;;;;;;;;;24.00;38.90;;;;;;1498576;78;771;-63
2022/04/07 10:51:18;;;;;;;;;;;24.00;38.80;;;;;;1496323;78;1728;-63
2022/04/07 10:53:34;;;;;;;;;;;24.00;38.90;;;;;;1514194;78;670;-64
2022/04/07 10:55:40;;;;;;;;;;;24.00;38.90;;;;;;1492056;78;930;-64
2022/04/07 10:58:00;;;;;;;;;;;24.00;38.80;;;;;;1503681;78;1995;-62
2022/04/07 11:00:02;;;;;;;;;;;23.90;38.80;;;;;;1490565;78;719;-62
2022/04/07 11:02:05;;;;;;;;;;;24.00;38.90;;;;;;1509384;78;1185;-63
2022/04/07 11:04:20;;;;;;;;;;;24.00;39.00;;;;;;1517197;78;729;-62
2022/04/07 11:06:22;;;;;;;;;;;24.10;39.00;;;;;;1518385;78;1943;-62
2022/04/07 11:08:24;;;;;;;;;;;24.10;39.00;;;;;;1517724;77;788;-63
2022/04/07 11:10:48;;;;;;;;;;;24.10;39.10;;;;;;1521627;78;725;-62
2022/04/07 11:12:46;;;;;;;;;;;24.00;39.00;;;;;;1513352;77;1698;-63
2022/04/07 11:14:48;;;;;;;;;;;24.00;39.20;;;;;;1473497;79;1223;-62
2022/04/07 11:16:50;;;;;;;;;;;24.10;39.40;;;;;;1509982;77;722;-62
2022/04/07 11:19:10;;;;;;;;;;;24.00;39.30;;;;;;1518979;78;731;-62
2022/04/07 11:21:12;;;;;;;;;;;24.00;39.30;;;;;;1505322;77;1127;-62
2022/04/07 11:23:14;;;;;;;;;;;24.20;39.40;;;;;;1518320;77;760;-62
2022/04/07 11:25:17;;;;;;;;;;;24.10;39.40;;;;;;1486068;79;1177;-62
2022/04/07 11:27:42;;;;;;;;;;;24.00;39.30;;;;;;1493258;78;1942;-62
2022/04/07 11:29:39;;;;;;;;;;;24.00;39.40;;;;;;1442143;80;1631;-63
2022/04/07 11:31:42;;;;;;;;;;;24.00;39.40;;;;;;1490939;79;1147;-63
2022/04/07 11:33:45;;;;;;;;;;;24.00;39.40;;;;;;1438980;80;737;-63
2022/04/07 11:36:02;;;;;;;;;;;24.00;39.50;;;;;;1480544;80;741;-62
2022/04/07 11:38:04;;;;;;;;;;;24.00;39.50;;;;;;1481711;79;934;-62
2022/04/07 11:40:06;;;;;;;;;;;23.90;39.70;;;;;;1488811;79;742;-62
2022/04/07 11:42:09;;;;;;;;;;;23.90;39.70;;;;;;1484344;79;1130;-63
2022/04/07 11:44:11;;;;;;;;;;;23.90;39.70;;;;;;1491496;79;852;-63
2022/04/07 11:46:18;;;;;;;;;;;23.90;39.80;;;;;;1483994;79;1934;-62
2022/04/07 11:48:21;;;;;;;;;;;23.90;39.80;;;;;;1480014;79;2220;-63
2022/04/07 11:50:22;;;;;;;;;;;23.90;39.80;;;;;;1487855;79;823;-62
2022/04/07 11:52:26;;;;;;;;;;;23.90;39.80;;;;;;1449210;80;1188;-63
2022/04/07 11:54:28;;;;;;;;;;;23.90;39.80;;;;;;1477099;78;1830;-63
2022/04/07 11:56:31;;;;;;;;;;;23.90;39.80;;;;;;1489032;79;782;-62
2022/04/07 11:58:33;;;;;;;;;;;23.90;39.80;;;;;;1482272;79;690;-63
2022/04/07 12:00:36;;;;;;;;;;;23.90;39.80;;;;;;1449062;81;769;-63
2022/04/07 12:02:38;;;;;;;;;;;23.90;39.80;;;;;;1490841;78;1124;-62
2022/04/07 12:04:40;;;;;;;;;;;23.90;39.80;;;;;;1476162;79;709;-63
2022/04/07 12:06:47;;;;;;;;;;;24.00;39.80;;;;;;1477467;79;1919;-62
2022/04/07 12:08:50;;;;;;;;;;;23.90;39.80;;;;;;1480988;80;800;-62
2022/04/07 12:10:52;;;;;;;;;;;23.90;39.80;;;;;;1473890;78;869;-63
2022/04/07 12:12:54;;;;;;;;;;;24.00;39.70;;;;;;1477473;80;1036;-62